Latest Coastal Weather Observations for Troughton Island

IDW60701

Issued at 2:23 am WST Tuesday 19 December 2017 (issued every 10 minutes, with the page automatically refreshed every 10 minutes)

About coastal observations | Map of coastal stations | Coastal observations for WA | Marine services | Other Formats
Station Details ID: 001007 Name: TROUGHTON ISLAND Lat: -13.75 Lon: 126.15 Height: 6.0 m
Data from the previous 72 hours. | See also: Recent months at Troughton Island
Date/Time
WST
Temp
°C
Wind Pressure Rain since
9am
mm
Weather Cloud Vis
km
Sea
Height
m
Swell
Dir  Spd
kts
Gust
kts
hPa Trend Height
m
Period
s
Dir
19/02:00am 29.9 WNW 9 11 1007.3 - 0.0 - - - - - - -
19/01:30am 29.9 WNW 9 12 1007.4 - 0.0 - - - - - - -
19/01:00am 29.9 NW 8 11 1007.7 - 0.0 - - - - - - -
19/12:30am 30.0 NW 8 9 1007.8 - 0.0 - - - - - - -
19/12:00am 29.8 NW 7 8 1008.1 - 0.0 - - - - - - -
 
Date/Time
WST
Temp
°C
Wind Pressure Rain since
9am
mm
Weather Cloud Vis
km
Sea
Height
m
Swell
Dir  Spd
kts
Gust
kts
hPa Trend Height
m
Period
s
Dir
18/11:30pm 30.0 NW 8 10 1008.3 - 0.0 - - - - - - -
18/11:00pm 30.0 NW 8 9 1008.2 - 0.0 - - - - - - -
18/10:30pm 30.0 NW 8 10 1008.4 - 0.0 - - - - - - -
18/10:00pm 29.9 NW 8 10 1008.3 - 0.0 - - - - - - -
18/09:30pm 30.1 NW 8 10 1008.2 - 0.0 - - - - - - -
18/09:00pm 30.1 NW 7 9 1008.5 - 0.0 - - - - - - -
18/08:30pm 30.2 NW 7 9 1008.5 - 0.0 - - - - - - -
18/08:00pm 30.3 NW 7 9 1007.8 - 0.0 - - - - - - -
18/07:30pm 30.4 WNW 10 12 1007.6 - 0.0 - - - - - - -
18/07:00pm 30.4 WNW 11 13 1007.3 - 0.0 - - - - - - -
18/06:30pm 30.5 NW 10 12 1006.7 - 0.0 - - - - - - -
18/06:00pm 30.6 NW 10 12 1006.1 - 0.0 - - - - - - -
18/05:30pm 31.1 NW 9 11 1005.8 - 0.0 - - - - - - -
18/05:00pm 31.5 NW 12 14 1005.2 - 0.0 - - - - - - -
18/04:30pm 32.2 NW 11 12 1005.2 - 0.0 - - - - - - -
18/04:00pm 32.6 NW 9 11 1005.0 - 0.0 - - - - - - -
18/03:30pm 32.8 NW 9 11 1005.1 - 0.0 - - - - - - -
18/03:00pm 33.1 WNW 7 9 1005.3 - 0.0 - - - - - - -
18/02:30pm 32.8 WNW 7 9 1005.6 - 0.0 - - - - - - -
18/02:00pm 32.3 NW 6 8 1006.1 - 0.0 - - - - - - -
18/01:30pm 32.3 WNW 6 8 1006.5 - 0.0 - - - - - - -
18/01:00pm 32.2 NNW 6 8 1006.7 - 0.0 - - - - - - -
18/12:30pm 32.4 NW 5 8 1007.0 - 0.0 - - - - - - -
18/12:00pm 32.1 W 4 6 1007.2 - 0.0 - - - - - - -
18/11:30am 31.7 N 5 7 1007.6 - 0.0 - - - - - - -
18/11:00am 32.2 NE 5 7 1007.8 - 0.0 - - - - - - -
18/10:30am 32.3 ESE 5 7 1007.9 - 0.0 - - - - - - -
18/10:00am 32.1 ESE 6 9 1008.1 - 0.0 - - - - - - -
18/09:30am 32.3 SE 7 9 1008.3 - 0.0 - - - - - - -
18/09:00am 31.4 SSE 7 9 1008.5 - 0.0 - - - - - - -
18/08:30am 31.5 SSE 8 10 1008.4 - 0.0 - - - - - - -
18/08:00am 31.6 S 7 8 1008.2 - 0.0 - - - - - - -
18/07:30am 31.6 SSW 7 9 1008.1 - 0.0 - - - - - - -
18/07:00am 31.2 SSW 7 9 1007.8 - 0.0 - - - - - - -
18/06:30am 30.9 S 7 9 1007.7 - 0.0 - - - - - - -
18/06:00am 30.6 S 7 9 1007.7 - 0.0 - - - - - - -
18/05:30am 30.0 SW 8 10 1007.6 - 0.0 - - - - - - -
18/05:00am 29.9 SW 7 9 1007.4 - 0.0 - - - - - - -
18/04:30am 29.8 SW 7 9 1007.2 - 0.0 - - - - - - -
18/04:00am 29.9 SW 8 10 1006.8 - 0.0 - - - - - - -
18/03:30am 29.9 WSW 10 13 1006.3 - 0.0 - - - - - - -
18/03:00am 30.0 WSW 10 12 1006.1 - 0.0 - - - - - - -
18/02:30am 30.1 WSW 9 11 1006.5 - 0.0 - - - - - - -
18/02:00am 30.1 W 10 11 1006.7 - 0.0 - - - - - - -
18/01:30am 30.1 WSW 11 12 1006.8 - 0.0 - - - - - - -
18/01:00am 30.3 WSW 10 11 1007.3 - 0.0 - - - - - - -
18/12:30am 30.4 W 9 11 1007.5 - 0.0 - - - - - - -
18/12:00am 30.4 WSW 9 11 1007.9 - 0.0 - - - - - - -
 
Date/Time
WST
Temp
°C
Wind Pressure Rain since
9am
mm
Weather Cloud Vis
km
Sea
Height
m
Swell
Dir  Spd
kts
Gust
kts
hPa Trend Height
m
Period
s
Dir
17/11:30pm 30.5 WSW 9 11 1008.2 - 0.0 - - - - - - -
17/11:00pm 30.6 WSW 9 11 1008.5 - 0.0 - - - - - - -
17/10:30pm 30.7 WSW 9 11 1008.7 - 0.0 - - - - - - -
17/10:00pm 30.8 WSW 10 11 1009.3 - 0.0 - - - - - - -
17/09:30pm 30.8 WSW 9 11 1009.3 - 0.0 - - - - - - -
17/09:00pm 30.7 WSW 9 11 1009.0 - 0.0 - - - - - - -
17/08:30pm 30.8 W 9 11 1008.5 - 0.0 - - - - - - -
17/08:00pm 30.5 WNW 9 11 1007.8 - 0.0 - - - - - - -
17/07:30pm 30.5 WNW 9 12 1007.1 - 0.0 - - - - - - -
17/07:00pm 30.5 WNW 9 11 1006.8 - 0.0 - - - - - - -
17/06:30pm 30.5 WNW 10 12 1006.5 - 0.0 - - - - - - -
17/06:00pm 30.7 W 10 13 1006.4 - 0.0 - - - - - - -
17/05:30pm 31.0 W 10 13 1006.5 - 0.0 - - - - - - -
17/05:00pm 31.2 WNW 10 12 1006.1 - 0.0 - - - - - - -
17/04:30pm 31.4 WNW 9 11 1005.9 - 0.0 - - - - - - -
17/04:00pm 31.8 NW 10 12 1006.0 - 0.0 - - - - - - -
17/03:30pm 32.3 NNW 9 11 1006.4 - 0.0 - - - - - - -
17/03:00pm 32.2 N 8 9 1006.7 - 0.0 - - - - - - -
17/02:30pm 32.6 NNW 8 10 1007.0 - 0.0 - - - - - - -
17/02:00pm 32.6 NNW 8 11 1007.2 - 0.0 - - - - - - -
17/01:30pm 32.9 NW 8 11 1007.4 - 0.0 - - - - - - -
17/01:00pm 32.9 WNW 7 9 1007.5 - 0.0 - - - - - - -
17/12:30pm 32.9 WNW 7 9 1007.8 - 0.0 - - - - - - -
17/12:00pm 32.7 WNW 6 8 1008.2 - 0.0 - - - - - - -
17/11:30am 32.3 W 5 7 1008.5 - 0.0 - - - - - - -
17/11:00am 32.7 W 6 8 1008.7 - 0.0 - - - - - - -
17/10:30am 32.9 W 6 7 1008.7 - 0.0 - - - - - - -
17/10:00am 32.1 W 6 7 1009.2 - 0.0 - - - - - - -
17/09:30am 32.4 WSW 5 6 1009.4 - 0.0 - - - - - - -
17/09:00am 32.0 SW 5 6 1009.4 - 0.0 - - - - - - -
17/08:30am 31.8 SW 5 7 1009.5 - 0.0 - - - - - - -
17/08:00am 31.6 SSW 5 8 1009.5 - 0.0 - - - - - - -
17/07:30am 31.7 SW 6 8 1009.5 - 0.0 - - - - - - -
17/07:00am 31.2 SW 7 8 1009.4 - 0.0 - - - - - - -
17/06:30am 30.6 SW 8 9 1009.0 - 0.0 - - - - - - -
17/06:00am 29.9 WSW 8 10 1008.8 - 0.0 - - - - - - -
17/05:30am 29.5 W 9 10 1008.3 - 0.0 - - - - - - -
17/05:00am 29.4 W 7 9 1008.0 - 0.0 - - - - - - -
17/04:30am 29.4 W 9 11 1007.7 - 0.0 - - - - - - -
17/04:00am 29.5 W 8 9 1007.7 - 0.0 - - - - - - -
17/03:30am 29.4 W 8 10 1007.6 - 0.0 - - - - - - -
17/03:00am 29.3 W 6 7 1007.6 - 0.0 - - - - - - -
17/02:30am 29.4 W 7 8 1007.4 - 0.0 - - - - - - -
17/02:00am 29.6 W 6 8 1007.5 - 0.0 - - - - - - -
17/01:30am 29.7 W 7 9 1007.7 - 0.0 - - - - - - -
17/01:00am 29.7 WSW 6 7 1008.0 - 0.0 - - - - - - -
17/12:30am 29.7 W 6 7 1008.2 - 0.0 - - - - - - -
17/12:00am 29.8 WSW 7 9 1008.5 - 0.0 - - - - - - -
 
Date/Time
WST
Temp
°C
Wind Pressure Rain since
9am
mm
Weather Cloud Vis
km
Sea
Height
m
Swell
Dir  Spd
kts
Gust
kts
hPa Trend Height
m
Period
s
Dir
16/11:30pm 29.9 W 9 10 1008.7 - 0.0 - - - - - - -
16/11:00pm 30.0 W 9 11 1008.7 - 0.0 - - - - - - -
16/10:30pm 29.9 WNW 10 11 1008.9 - 0.0 - - - - - - -
16/10:00pm 30.0 W 8 10 1009.0 - 0.0 - - - - - - -
16/09:30pm 30.0 W 8 10 1008.8 - 0.0 - - - - - - -
16/09:00pm 30.1 W 9 11 1008.6 - 0.0 - - - - - - -
16/08:30pm 30.1 W 10 13 1008.4 - 0.0 - - - - - - -
16/08:00pm 30.2 W 11 13 1008.2 - 0.0 - - - - - - -
16/07:30pm 30.2 W 11 14 1008.2 - 0.0 - - - - - - -
16/07:00pm 30.0 WNW 11 14 1007.9 - 0.0 - - - - - - -
16/06:30pm 30.2 WNW 12 15 1007.4 - 0.0 - - - - - - -
16/06:00pm 30.2 WNW 12 14 1006.8 - 0.0 - - - - - - -
16/05:30pm 30.9 WNW 11 13 1006.5 - 0.0 - - - - - - -
16/05:00pm 31.3 W 11 13 1006.2 - 0.0 - - - - - - -
16/04:30pm 31.8 WNW 10 11 1006.1 - 0.0 - - - - - - -
16/04:00pm 32.2 WNW 8 10 1006.4 - 0.0 - - - - - - -
16/03:30pm 32.4 W 7 9 1006.5 - 0.0 - - - - - - -
16/03:00pm 32.4 W 6 8 1006.6 - 0.0 - - - - - - -
16/02:30pm 32.2 W 6 8 1006.8 - 0.0 - - - - - - -
16/02:00pm 32.4 WNW 6 8 1007.2 - 0.0 - - - - - - -
16/01:30pm 32.1 WNW 6 9 1007.5 - 0.0 - - - - - - -
16/01:00pm 32.2 NW 6 8 1007.6 - 0.0 - - - - - - -
16/12:30pm 31.6 N 8 11 1007.9 - 0.0 - - - - - - -
16/12:00pm 31.6 NNE 8 12 1008.3 - 0.0 - - - - - - -
16/11:30am 32.2 NNE 9 11 1008.5 - 0.0 - - - - - - -
16/11:00am 31.8 NNE 7 10 1008.7 - 0.0 - - - - - - -
16/10:30am 31.0 N 8 11 1008.7 - 0.0 - - - - - - -
16/10:00am 31.4 N 7 10 1009.1 - 0.0 - - - - - - -
16/09:30am 31.3 NNE 5 8 1009.5 - 0.0 - - - - - - -
16/09:00am 30.7 NNE 6 8 1009.6 - 2.8 - - - - - - -
16/08:30am 31.4 ENE 5 6 1010.1 - 2.8 - - - - - - -
16/08:00am 30.8 NE 5 7 1009.9 - 2.8 - - - - - - -
16/07:30am 30.1 CALM 0 3 1010.1 - 2.8 - - - - - - -
16/07:00am 30.2 ESE 1 3 1010.2 - 2.8 - - - - - - -
16/06:30am 29.7 CALM 0 4 1010.1 - 2.8 - - - - - - -
16/06:00am 29.1 CALM 0 0 1009.8 - 2.8 - - - - - - -
16/05:30am 28.7 NNE 3 4 1009.6 - 2.8 - - - - - - -
16/05:00am 28.8 NE 3 5 1009.2 - 2.8 - - - - - - -
16/04:30am 28.7 NE 5 6 1008.8 - 2.8 - - - - - - -
16/04:00am 28.8 E 4 5 1008.8 - 2.8 - - - - - - -
16/03:30am 28.9 ESE 5 7 1008.5 - 2.8 - - - - - - -
16/03:00am 28.9 ESE 5 6 1008.0 - 2.8 - - - - - - -
16/02:30am 28.8 ESE 5 6 1008.3 - 2.8 - - - - - - -

Other Formats:

Comma delimited format used in spreadsheet applications
http://www.bom.gov.au/fwo/IDW60701/IDW60701.94102.axf

JavaScript Object Notation format (JSON) in row-major order
http://www.bom.gov.au/fwo/IDW60701/IDW60701.94102.json